Clearwater, Kansas
Current Conditions -  °F | °C
As of 3:53 PM on Friday 24 Oct 2014 (Local Time) from KICT Reporting Station
Scattered Clouds Scattered Clouds  
Wind Chill: 83°   Ceiling: Unl
Heat Index: 83°   Visibility: 10mi
Dew Point: 61°   Wind: 10mph
Humidity: 47%   Direction: 210°SSW
Pressure: 29.99"   Gusts: NA
Location:  37.5°N, 97.5°W
Report Text: KICT 242053Z 21009KT 10SM SCT300 28/16 A2999 RMK AO2 SLP144 T02830161 56021
Loading
Personal Weather Stations






























Interactive Weather Map
Tropical Storm Tracking
New forecast layout! Learn more

10-Day Weather Forecast

Advertisements
Track Severe Weather on mobile